sensor_id;sensor_type;location;lat;lon;timestamp;P1;durP1;ratioP1;P2;durP2;ratioP2
74335;SDS011;62755;-33.398;-70.572;2023-08-17T00:01:34;28.52;;;9.25;;
74335;SDS011;62755;-33.398;-70.572;2023-08-17T00:04:04;24.23;;;8.95;;
74335;SDS011;62755;-33.398;-70.572;2023-08-17T00:06:35;20.50;;;8.40;;
74335;SDS011;62755;-33.398;-70.572;2023-08-17T00:09:04;25.77;;;10.38;;
74335;SDS011;62755;-33.398;-70.572;2023-08-17T00:11:35;18.23;;;9.13;;
74335;SDS011;62755;-33.398;-70.572;2023-08-17T00:14:04;20.08;;;7.78;;
74335;SDS011;62755;-33.398;-70.572;2023-08-17T00:16:34;21.33;;;8.68;;
74335;SDS011;62755;-33.398;-70.572;2023-08-17T00:19:03;23.67;;;9.45;;
74335;SDS011;62755;-33.398;-70.572;2023-08-17T00:21:34;23.25;;;9.15;;
74335;SDS011;62755;-33.398;-70.572;2023-08-17T00:24:04;22.75;;;9.52;;
74335;SDS011;62755;-33.398;-70.572;2023-08-17T00:26:34;29.27;;;10.70;;
74335;SDS011;62755;-33.398;-70.572;2023-08-17T00:29:04;23.67;;;9.85;;
74335;SDS011;62755;-33.398;-70.572;2023-08-17T00:31:33;23.05;;;9.27;;
74335;SDS011;62755;-33.398;-70.572;2023-08-17T00:34:03;22.05;;;9.73;;
74335;SDS011;62755;-33.398;-70.572;2023-08-17T00:36:34;22.80;;;10.00;;
74335;SDS011;62755;-33.398;-70.572;2023-08-17T00:39:04;20.80;;;9.63;;
74335;SDS011;62755;-33.398;-70.572;2023-08-17T00:41:33;26.30;;;9.48;;
74335;SDS011;62755;-33.398;-70.572;2023-08-17T00:44:03;35.58;;;21.23;;
74335;SDS011;62755;-33.398;-70.572;2023-08-17T00:46:33;23.35;;;10.55;;
74335;SDS011;62755;-33.398;-70.572;2023-08-17T00:49:04;30.08;;;10.55;;
74335;SDS011;62755;-33.398;-70.572;2023-08-17T00:51:35;20.05;;;8.82;;
74335;SDS011;62755;-33.398;-70.572;2023-08-17T00:54:06;20.67;;;9.25;;
74335;SDS011;62755;-33.398;-70.572;2023-08-17T00:56:37;23.98;;;9.30;;
74335;SDS011;62755;-33.398;-70.572;2023-08-17T00:59:07;19.65;;;10.65;;
74335;SDS011;62755;-33.398;-70.572;2023-08-17T01:01:37;26.45;;;9.93;;
74335;SDS011;62755;-33.398;-70.572;2023-08-17T01:04:08;22.60;;;9.98;;
74335;SDS011;62755;-33.398;-70.572;2023-08-17T01:06:37;25.35;;;10.35;;
74335;SDS011;62755;-33.398;-70.572;2023-08-17T01:09:07;25.00;;;10.25;;
74335;SDS011;62755;-33.398;-70.572;2023-08-17T01:11:39;26.20;;;10.23;;
74335;SDS011;62755;-33.398;-70.572;2023-08-17T01:14:15;24.60;;;10.77;;
74335;SDS011;62755;-33.398;-70.572;2023-08-17T01:16:52;25.63;;;9.93;;
74335;SDS011;62755;-33.398;-70.572;2023-08-17T01:19:30;23.70;;;11.68;;
74335;SDS011;62755;-33.398;-70.572;2023-08-17T01:22:01;24.38;;;11.68;;
74335;SDS011;62755;-33.398;-70.572;2023-08-17T01:24:35;36.00;;;14.38;;
74335;SDS011;62755;-33.398;-70.572;2023-08-17T01:27:04;37.45;;;15.65;;
74335;SDS011;62755;-33.398;-70.572;2023-08-17T01:29:34;26.25;;;12.55;;
74335;SDS011;62755;-33.398;-70.572;2023-08-17T01:32:06;37.92;;;14.10;;
74335;SDS011;62755;-33.398;-70.572;2023-08-17T01:34:43;28.38;;;12.43;;
74335;SDS011;62755;-33.398;-70.572;2023-08-17T01:37:18;28.40;;;11.25;;
74335;SDS011;62755;-33.398;-70.572;2023-08-17T01:39:52;30.60;;;12.18;;
74335;SDS011;62755;-33.398;-70.572;2023-08-17T01:42:26;33.75;;;15.15;;
74335;SDS011;62755;-33.398;-70.572;2023-08-17T01:44:56;21.88;;;10.38;;
74335;SDS011;62755;-33.398;-70.572;2023-08-17T01:47:26;19.95;;;9.13;;
74335;SDS011;62755;-33.398;-70.572;2023-08-17T01:49:56;26.02;;;9.60;;
74335;SDS011;62755;-33.398;-70.572;2023-08-17T01:52:27;18.45;;;9.32;;
74335;SDS011;62755;-33.398;-70.572;2023-08-17T01:54:59;24.42;;;8.80;;
74335;SDS011;62755;-33.398;-70.572;2023-08-17T01:57:28;26.70;;;9.85;;
74335;SDS011;62755;-33.398;-70.572;2023-08-17T01:59:58;40.13;;;17.45;;
74335;SDS011;62755;-33.398;-70.572;2023-08-17T02:02:31;29.25;;;11.20;;
74335;SDS011;62755;-33.398;-70.572;2023-08-17T02:05:00;28.10;;;8.68;;
74335;SDS011;62755;-33.398;-70.572;2023-08-17T02:07:30;37.42;;;11.45;;
74335;SDS011;62755;-33.398;-70.572;2023-08-17T02:10:02;33.00;;;14.20;;
74335;SDS011;62755;-33.398;-70.572;2023-08-17T02:12:32;34.72;;;14.75;;
74335;SDS011;62755;-33.398;-70.572;2023-08-17T02:15:01;50.58;;;23.77;;
74335;SDS011;62755;-33.398;-70.572;2023-08-17T02:17:31;56.90;;;25.05;;
74335;SDS011;62755;-33.398;-70.572;2023-08-17T02:20:00;62.65;;;30.75;;
74335;SDS011;62755;-33.398;-70.572;2023-08-17T02:22:31;34.90;;;18.08;;
74335;SDS011;62755;-33.398;-70.572;2023-08-17T02:25:03;43.60;;;17.85;;
74335;SDS011;62755;-33.398;-70.572;2023-08-17T02:27:33;33.38;;;15.70;;
74335;SDS011;62755;-33.398;-70.572;2023-08-17T02:30:03;34.78;;;17.52;;
74335;SDS011;62755;-33.398;-70.572;2023-08-17T02:32:33;24.13;;;14.80;;
74335;SDS011;62755;-33.398;-70.572;2023-08-17T02:35:02;29.10;;;14.80;;
74335;SDS011;62755;-33.398;-70.572;2023-08-17T02:37:32;34.28;;;16.08;;
74335;SDS011;62755;-33.398;-70.572;2023-08-17T02:40:04;44.63;;;19.27;;
74335;SDS011;62755;-33.398;-70.572;2023-08-17T02:42:34;41.75;;;19.33;;
74335;SDS011;62755;-33.398;-70.572;2023-08-17T02:45:03;33.42;;;16.23;;
74335;SDS011;62755;-33.398;-70.572;2023-08-17T02:47:33;29.98;;;14.85;;
74335;SDS011;62755;-33.398;-70.572;2023-08-17T02:50:03;27.50;;;13.60;;
74335;SDS011;62755;-33.398;-70.572;2023-08-17T02:52:34;30.75;;;13.85;;
74335;SDS011;62755;-33.398;-70.572;2023-08-17T02:55:05;27.15;;;13.13;;
74335;SDS011;62755;-33.398;-70.572;2023-08-17T02:57:35;30.25;;;13.77;;
74335;SDS011;62755;-33.398;-70.572;2023-08-17T03:00:05;26.65;;;12.27;;
74335;SDS011;62755;-33.398;-70.572;2023-08-17T03:02:35;30.55;;;12.27;;
74335;SDS011;62755;-33.398;-70.572;2023-08-17T03:05:05;26.65;;;11.57;;
74335;SDS011;62755;-33.398;-70.572;2023-08-17T03:07:35;19.27;;;11.38;;
74335;SDS011;62755;-33.398;-70.572;2023-08-17T03:10:07;20.98;;;10.82;;
74335;SDS011;62755;-33.398;-70.572;2023-08-17T03:12:37;29.45;;;11.88;;
74335;SDS011;62755;-33.398;-70.572;2023-08-17T03:15:07;22.55;;;11.30;;
74335;SDS011;62755;-33.398;-70.572;2023-08-17T03:17:37;33.17;;;16.88;;
74335;SDS011;62755;-33.398;-70.572;2023-08-17T03:20:07;32.25;;;16.23;;
74335;SDS011;62755;-33.398;-70.572;2023-08-17T03:22:37;37.70;;;19.40;;
74335;SDS011;62755;-33.398;-70.572;2023-08-17T03:25:09;54.35;;;23.60;;
74335;SDS011;62755;-33.398;-70.572;2023-08-17T03:27:38;27.58;;;13.98;;
74335;SDS011;62755;-33.398;-70.572;2023-08-17T03:30:08;38.50;;;16.55;;
74335;SDS011;62755;-33.398;-70.572;2023-08-17T03:32:38;40.80;;;20.42;;
74335;SDS011;62755;-33.398;-70.572;2023-08-17T03:35:07;53.47;;;23.77;;
74335;SDS011;62755;-33.398;-70.572;2023-08-17T03:37:38;37.35;;;17.67;;
74335;SDS011;62755;-33.398;-70.572;2023-08-17T03:40:10;33.88;;;14.32;;
74335;SDS011;62755;-33.398;-70.572;2023-08-17T03:42:40;28.30;;;12.95;;
74335;SDS011;62755;-33.398;-70.572;2023-08-17T03:45:10;34.13;;;13.93;;
74335;SDS011;62755;-33.398;-70.572;2023-08-17T03:47:39;22.00;;;11.30;;
74335;SDS011;62755;-33.398;-70.572;2023-08-17T03:50:09;27.67;;;12.23;;
74335;SDS011;62755;-33.398;-70.572;2023-08-17T03:52:38;30.63;;;13.27;;
74335;SDS011;62755;-33.398;-70.572;2023-08-17T03:55:10;23.35;;;12.25;;
74335;SDS011;62755;-33.398;-70.572;2023-08-17T03:57:39;25.45;;;12.45;;
74335;SDS011;62755;-33.398;-70.572;2023-08-17T04:00:09;33.80;;;13.95;;
74335;SDS011;62755;-33.398;-70.572;2023-08-17T04:02:39;31.45;;;13.45;;
74335;SDS011;62755;-33.398;-70.572;2023-08-17T04:05:09;23.90;;;13.15;;
74335;SDS011;62755;-33.398;-70.572;2023-08-17T04:07:38;26.95;;;13.65;;
74335;SDS011;62755;-33.398;-70.572;2023-08-17T04:10:10;28.42;;;13.80;;
74335;SDS011;62755;-33.398;-70.572;2023-08-17T04:12:39;22.90;;;11.95;;
74335;SDS011;62755;-33.398;-70.572;2023-08-17T04:15:09;23.15;;;13.25;;
74335;SDS011;62755;-33.398;-70.572;2023-08-17T04:17:38;27.38;;;14.35;;
74335;SDS011;62755;-33.398;-70.572;2023-08-17T04:20:08;23.55;;;13.95;;
74335;SDS011;62755;-33.398;-70.572;2023-08-17T04:22:39;29.45;;;14.43;;
74335;SDS011;62755;-33.398;-70.572;2023-08-17T04:25:10;53.05;;;23.33;;
74335;SDS011;62755;-33.398;-70.572;2023-08-17T04:27:39;40.17;;;19.30;;
74335;SDS011;62755;-33.398;-70.572;2023-08-17T04:30:09;39.13;;;20.38;;
74335;SDS011;62755;-33.398;-70.572;2023-08-17T04:32:39;43.85;;;21.55;;
74335;SDS011;62755;-33.398;-70.572;2023-08-17T04:35:09;44.80;;;22.35;;
74335;SDS011;62755;-33.398;-70.572;2023-08-17T04:37:39;55.35;;;24.27;;
74335;SDS011;62755;-33.398;-70.572;2023-08-17T04:40:11;31.77;;;17.73;;
74335;SDS011;62755;-33.398;-70.572;2023-08-17T04:42:40;38.55;;;19.05;;
74335;SDS011;62755;-33.398;-70.572;2023-08-17T04:45:10;43.05;;;23.73;;
74335;SDS011;62755;-33.398;-70.572;2023-08-17T04:47:40;38.25;;;19.13;;
74335;SDS011;62755;-33.398;-70.572;2023-08-17T04:50:10;25.85;;;16.17;;
74335;SDS011;62755;-33.398;-70.572;2023-08-17T04:52:42;29.27;;;17.17;;
74335;SDS011;62755;-33.398;-70.572;2023-08-17T04:55:14;29.90;;;15.82;;
74335;SDS011;62755;-33.398;-70.572;2023-08-17T04:57:44;26.05;;;15.65;;
74335;SDS011;62755;-33.398;-70.572;2023-08-17T05:00:14;23.90;;;13.95;;
74335;SDS011;62755;-33.398;-70.572;2023-08-17T05:02:46;29.83;;;14.82;;
74335;SDS011;62755;-33.398;-70.572;2023-08-17T05:05:16;28.40;;;16.08;;
74335;SDS011;62755;-33.398;-70.572;2023-08-17T05:07:46;30.23;;;14.38;;
74335;SDS011;62755;-33.398;-70.572;2023-08-17T05:10:17;25.85;;;14.85;;
74335;SDS011;62755;-33.398;-70.572;2023-08-17T05:12:47;25.55;;;13.65;;
74335;SDS011;62755;-33.398;-70.572;2023-08-17T05:15:17;25.75;;;13.75;;
74335;SDS011;62755;-33.398;-70.572;2023-08-17T05:17:46;25.75;;;14.45;;
74335;SDS011;62755;-33.398;-70.572;2023-08-17T05:20:16;29.73;;;13.82;;
74335;SDS011;62755;-33.398;-70.572;2023-08-17T05:22:46;27.80;;;15.00;;
74335;SDS011;62755;-33.398;-70.572;2023-08-17T05:25:18;23.83;;;14.93;;
74335;SDS011;62755;-33.398;-70.572;2023-08-17T05:27:48;31.08;;;15.48;;
74335;SDS011;62755;-33.398;-70.572;2023-08-17T05:30:17;28.00;;;15.32;;
74335;SDS011;62755;-33.398;-70.572;2023-08-17T05:32:47;23.45;;;14.90;;
74335;SDS011;62755;-33.398;-70.572;2023-08-17T05:35:17;30.40;;;16.60;;
74335;SDS011;62755;-33.398;-70.572;2023-08-17T05:37:47;33.85;;;16.90;;
74335;SDS011;62755;-33.398;-70.572;2023-08-17T05:40:19;26.48;;;16.85;;
74335;SDS011;62755;-33.398;-70.572;2023-08-17T05:42:48;33.03;;;18.77;;
74335;SDS011;62755;-33.398;-70.572;2023-08-17T05:45:18;47.50;;;31.58;;
74335;SDS011;62755;-33.398;-70.572;2023-08-17T05:47:48;32.65;;;17.52;;
74335;SDS011;62755;-33.398;-70.572;2023-08-17T05:50:18;33.50;;;16.17;;
74335;SDS011;62755;-33.398;-70.572;2023-08-17T05:52:48;33.00;;;17.13;;
74335;SDS011;62755;-33.398;-70.572;2023-08-17T05:55:19;28.95;;;15.35;;
74335;SDS011;62755;-33.398;-70.572;2023-08-17T05:57:49;28.45;;;15.70;;
74335;SDS011;62755;-33.398;-70.572;2023-08-17T06:00:19;29.85;;;15.10;;
74335;SDS011;62755;-33.398;-70.572;2023-08-17T06:02:49;24.75;;;15.55;;
74335;SDS011;62755;-33.398;-70.572;2023-08-17T06:05:18;25.08;;;14.80;;
74335;SDS011;62755;-33.398;-70.572;2023-08-17T06:07:52;27.05;;;15.88;;
74335;SDS011;62755;-33.398;-70.572;2023-08-17T06:10:23;28.42;;;15.00;;
74335;SDS011;62755;-33.398;-70.572;2023-08-17T06:12:53;25.75;;;13.98;;
74335;SDS011;62755;-33.398;-70.572;2023-08-17T06:15:23;26.92;;;14.38;;
74335;SDS011;62755;-33.398;-70.572;2023-08-17T06:17:53;26.73;;;14.45;;
74335;SDS011;62755;-33.398;-70.572;2023-08-17T06:20:23;24.67;;;14.20;;
74335;SDS011;62755;-33.398;-70.572;2023-08-17T06:22:53;22.77;;;13.52;;
74335;SDS011;62755;-33.398;-70.572;2023-08-17T06:25:24;22.65;;;13.20;;
74335;SDS011;62755;-33.398;-70.572;2023-08-17T06:27:54;24.60;;;13.95;;
74335;SDS011;62755;-33.398;-70.572;2023-08-17T06:30:24;29.08;;;13.70;;
74335;SDS011;62755;-33.398;-70.572;2023-08-17T06:32:54;22.80;;;12.73;;
74335;SDS011;62755;-33.398;-70.572;2023-08-17T06:35:24;22.42;;;12.95;;
74335;SDS011;62755;-33.398;-70.572;2023-08-17T06:37:53;22.52;;;12.75;;
74335;SDS011;62755;-33.398;-70.572;2023-08-17T06:40:25;29.63;;;12.93;;
74335;SDS011;62755;-33.398;-70.572;2023-08-17T06:42:55;28.50;;;12.50;;
74335;SDS011;62755;-33.398;-70.572;2023-08-17T06:45:25;25.52;;;13.93;;
74335;SDS011;62755;-33.398;-70.572;2023-08-17T06:47:54;23.58;;;12.65;;
74335;SDS011;62755;-33.398;-70.572;2023-08-17T06:50:24;24.42;;;12.77;;
74335;SDS011;62755;-33.398;-70.572;2023-08-17T06:52:54;23.23;;;12.68;;
74335;SDS011;62755;-33.398;-70.572;2023-08-17T06:55:25;26.38;;;12.40;;
74335;SDS011;62755;-33.398;-70.572;2023-08-17T06:57:55;23.42;;;12.45;;
74335;SDS011;62755;-33.398;-70.572;2023-08-17T07:00:25;29.67;;;13.25;;
74335;SDS011;62755;-33.398;-70.572;2023-08-17T07:02:54;20.52;;;12.80;;
74335;SDS011;62755;-33.398;-70.572;2023-08-17T07:05:24;33.78;;;15.93;;
74335;SDS011;62755;-33.398;-70.572;2023-08-17T07:07:54;25.42;;;14.00;;
74335;SDS011;62755;-33.398;-70.572;2023-08-17T07:10:27;22.77;;;12.73;;
74335;SDS011;62755;-33.398;-70.572;2023-08-17T07:12:56;28.17;;;14.18;;
74335;SDS011;62755;-33.398;-70.572;2023-08-17T07:15:29;26.33;;;13.57;;
74335;SDS011;62755;-33.398;-70.572;2023-08-17T07:17:59;34.10;;;14.45;;
74335;SDS011;62755;-33.398;-70.572;2023-08-17T07:20:28;28.50;;;15.52;;
74335;SDS011;62755;-33.398;-70.572;2023-08-17T07:22:58;22.55;;;14.15;;
74335;SDS011;62755;-33.398;-70.572;2023-08-17T07:25:29;26.75;;;13.70;;
74335;SDS011;62755;-33.398;-70.572;2023-08-17T07:27:59;28.20;;;14.50;;
74335;SDS011;62755;-33.398;-70.572;2023-08-17T07:30:28;34.03;;;18.25;;
74335;SDS011;62755;-33.398;-70.572;2023-08-17T07:32:58;36.15;;;22.02;;
74335;SDS011;62755;-33.398;-70.572;2023-08-17T07:35:28;24.45;;;14.15;;
74335;SDS011;62755;-33.398;-70.572;2023-08-17T07:37:57;28.67;;;13.43;;
74335;SDS011;62755;-33.398;-70.572;2023-08-17T07:40:27;30.88;;;13.60;;
74335;SDS011;62755;-33.398;-70.572;2023-08-17T07:42:58;24.52;;;14.65;;
74335;SDS011;62755;-33.398;-70.572;2023-08-17T07:45:28;20.13;;;13.68;;
74335;SDS011;62755;-33.398;-70.572;2023-08-17T07:47:58;21.35;;;14.10;;
74335;SDS011;62755;-33.398;-70.572;2023-08-17T07:50:27;23.05;;;14.15;;
74335;SDS011;62755;-33.398;-70.572;2023-08-17T07:52:57;20.33;;;13.73;;
74335;SDS011;62755;-33.398;-70.572;2023-08-17T07:55:26;22.88;;;14.25;;
74335;SDS011;62755;-33.398;-70.572;2023-08-17T07:57:57;22.85;;;14.73;;
74335;SDS011;62755;-33.398;-70.572;2023-08-17T08:00:27;28.55;;;13.90;;
74335;SDS011;62755;-33.398;-70.572;2023-08-17T08:02:57;22.20;;;14.48;;
74335;SDS011;62755;-33.398;-70.572;2023-08-17T08:05:26;30.60;;;15.30;;
74335;SDS011;62755;-33.398;-70.572;2023-08-17T08:07:56;30.33;;;14.60;;
74335;SDS011;62755;-33.398;-70.572;2023-08-17T08:10:25;23.98;;;14.40;;
74335;SDS011;62755;-33.398;-70.572;2023-08-17T08:12:58;27.13;;;15.40;;
74335;SDS011;62755;-33.398;-70.572;2023-08-17T08:15:28;26.90;;;13.52;;
74335;SDS011;62755;-33.398;-70.572;2023-08-17T08:17:57;32.72;;;15.80;;
74335;SDS011;62755;-33.398;-70.572;2023-08-17T08:20:27;26.83;;;13.25;;
74335;SDS011;62755;-33.398;-70.572;2023-08-17T08:22:56;23.42;;;14.77;;
74335;SDS011;62755;-33.398;-70.572;2023-08-17T08:25:26;25.92;;;13.10;;
74335;SDS011;62755;-33.398;-70.572;2023-08-17T08:27:57;30.67;;;13.85;;
74335;SDS011;62755;-33.398;-70.572;2023-08-17T08:30:27;24.35;;;13.98;;
74335;SDS011;62755;-33.398;-70.572;2023-08-17T08:32:56;27.48;;;13.77;;
74335;SDS011;62755;-33.398;-70.572;2023-08-17T08:35:26;23.88;;;13.55;;
74335;SDS011;62755;-33.398;-70.572;2023-08-17T08:37:58;22.40;;;13.07;;
74335;SDS011;62755;-33.398;-70.572;2023-08-17T08:40:28;24.08;;;13.50;;
74335;SDS011;62755;-33.398;-70.572;2023-08-17T08:43:00;25.10;;;14.02;;
74335;SDS011;62755;-33.398;-70.572;2023-08-17T08:45:30;23.58;;;13.40;;
74335;SDS011;62755;-33.398;-70.572;2023-08-17T08:48:00;27.60;;;13.43;;
74335;SDS011;62755;-33.398;-70.572;2023-08-17T08:50:31;24.15;;;14.10;;
74335;SDS011;62755;-33.398;-70.572;2023-08-17T08:53:03;23.95;;;14.00;;
74335;SDS011;62755;-33.398;-70.572;2023-08-17T08:55:38;28.77;;;13.20;;
74335;SDS011;62755;-33.398;-70.572;2023-08-17T08:58:17;27.27;;;14.75;;
74335;SDS011;62755;-33.398;-70.572;2023-08-17T09:00:47;27.73;;;14.38;;
74335;SDS011;62755;-33.398;-70.572;2023-08-17T09:03:16;25.63;;;14.13;;
74335;SDS011;62755;-33.398;-70.572;2023-08-17T09:05:47;27.10;;;13.90;;
74335;SDS011;62755;-33.398;-70.572;2023-08-17T09:08:27;32.15;;;14.60;;
74335;SDS011;62755;-33.398;-70.572;2023-08-17T09:10:57;22.27;;;14.35;;
74335;SDS011;62755;-33.398;-70.572;2023-08-17T09:13:29;26.02;;;13.80;;
74335;SDS011;62755;-33.398;-70.572;2023-08-17T09:15:58;25.23;;;14.65;;
74335;SDS011;62755;-33.398;-70.572;2023-08-17T09:18:28;23.52;;;14.32;;
74335;SDS011;62755;-33.398;-70.572;2023-08-17T09:20:58;20.75;;;13.45;;
74335;SDS011;62755;-33.398;-70.572;2023-08-17T09:23:28;27.00;;;13.30;;
74335;SDS011;62755;-33.398;-70.572;2023-08-17T09:25:57;24.88;;;14.05;;
74335;SDS011;62755;-33.398;-70.572;2023-08-17T09:28:40;24.25;;;14.05;;
74335;SDS011;62755;-33.398;-70.572;2023-08-17T09:31:10;24.73;;;14.50;;
74335;SDS011;62755;-33.398;-70.572;2023-08-17T09:33:41;29.25;;;14.93;;
74335;SDS011;62755;-33.398;-70.572;2023-08-17T09:36:10;32.72;;;16.25;;
74335;SDS011;62755;-33.398;-70.572;2023-08-17T09:38:40;28.88;;;16.10;;
74335;SDS011;62755;-33.398;-70.572;2023-08-17T09:41:10;37.08;;;20.95;;
74335;SDS011;62755;-33.398;-70.572;2023-08-17T09:43:42;32.08;;;17.58;;
74335;SDS011;62755;-33.398;-70.572;2023-08-17T09:46:11;37.20;;;17.80;;
74335;SDS011;62755;-33.398;-70.572;2023-08-17T09:48:43;34.10;;;16.63;;
74335;SDS011;62755;-33.398;-70.572;2023-08-17T09:51:14;28.08;;;16.23;;
74335;SDS011;62755;-33.398;-70.572;2023-08-17T09:53:51;26.98;;;15.82;;
74335;SDS011;62755;-33.398;-70.572;2023-08-17T09:56:21;29.85;;;16.30;;
74335;SDS011;62755;-33.398;-70.572;2023-08-17T09:58:53;26.20;;;16.45;;
74335;SDS011;62755;-33.398;-70.572;2023-08-17T10:01:23;25.63;;;16.15;;
74335;SDS011;62755;-33.398;-70.572;2023-08-17T10:03:58;28.67;;;15.55;;
74335;SDS011;62755;-33.398;-70.572;2023-08-17T10:06:31;30.85;;;17.35;;
74335;SDS011;62755;-33.398;-70.572;2023-08-17T10:09:02;28.27;;;16.58;;
74335;SDS011;62755;-33.398;-70.572;2023-08-17T10:11:32;28.20;;;16.67;;
74335;SDS011;62755;-33.398;-70.572;2023-08-17T10:14:09;28.58;;;16.75;;
74335;SDS011;62755;-33.398;-70.572;2023-08-17T10:16:43;29.73;;;15.90;;
74335;SDS011;62755;-33.398;-70.572;2023-08-17T10:19:15;26.50;;;15.13;;
74335;SDS011;62755;-33.398;-70.572;2023-08-17T10:21:48;29.35;;;15.07;;
74335;SDS011;62755;-33.398;-70.572;2023-08-17T10:24:22;25.60;;;14.27;;
74335;SDS011;62755;-33.398;-70.572;2023-08-17T10:26:52;27.13;;;15.68;;
74335;SDS011;62755;-33.398;-70.572;2023-08-17T10:29:24;25.83;;;14.20;;
74335;SDS011;62755;-33.398;-70.572;2023-08-17T10:31:55;26.38;;;14.43;;
74335;SDS011;62755;-33.398;-70.572;2023-08-17T10:34:27;27.52;;;14.73;;
74335;SDS011;62755;-33.398;-70.572;2023-08-17T10:36:58;27.50;;;14.32;;
74335;SDS011;62755;-33.398;-70.572;2023-08-17T10:39:28;31.73;;;15.68;;
74335;SDS011;62755;-33.398;-70.572;2023-08-17T10:41:59;23.85;;;14.05;;
74335;SDS011;62755;-33.398;-70.572;2023-08-17T10:47:20;29.17;;;15.07;;
74335;SDS011;62755;-33.398;-70.572;2023-08-17T10:49:51;28.00;;;15.10;;
74335;SDS011;62755;-33.398;-70.572;2023-08-17T10:52:29;27.48;;;15.07;;
74335;SDS011;62755;-33.398;-70.572;2023-08-17T10:54:59;29.20;;;16.45;;
74335;SDS011;62755;-33.398;-70.572;2023-08-17T10:57:32;35.78;;;16.23;;
74335;SDS011;62755;-33.398;-70.572;2023-08-17T11:00:17;31.88;;;16.48;;
74335;SDS011;62755;-33.398;-70.572;2023-08-17T11:02:53;30.95;;;16.10;;
74335;SDS011;62755;-33.398;-70.572;2023-08-17T11:05:37;29.80;;;16.55;;
74335;SDS011;62755;-33.398;-70.572;2023-08-17T11:08:08;27.02;;;16.92;;
74335;SDS011;62755;-33.398;-70.572;2023-08-17T11:10:41;29.35;;;16.98;;
74335;SDS011;62755;-33.398;-70.572;2023-08-17T11:13:17;34.33;;;17.02;;
74335;SDS011;62755;-33.398;-70.572;2023-08-17T11:15:49;31.27;;;16.83;;
74335;SDS011;62755;-33.398;-70.572;2023-08-17T11:18:18;48.03;;;17.63;;
74335;SDS011;62755;-33.398;-70.572;2023-08-17T11:20:48;33.60;;;18.27;;
74335;SDS011;62755;-33.398;-70.572;2023-08-17T11:23:19;31.58;;;18.08;;
74335;SDS011;62755;-33.398;-70.572;2023-08-17T11:25:49;25.40;;;16.88;;
74335;SDS011;62755;-33.398;-70.572;2023-08-17T11:28:21;28.70;;;16.20;;
74335;SDS011;62755;-33.398;-70.572;2023-08-17T11:30:58;30.73;;;17.23;;
74335;SDS011;62755;-33.398;-70.572;2023-08-17T11:33:28;27.40;;;16.30;;
74335;SDS011;62755;-33.398;-70.572;2023-08-17T11:35:59;29.20;;;17.42;;
74335;SDS011;62755;-33.398;-70.572;2023-08-17T11:38:30;34.97;;;17.08;;
74335;SDS011;62755;-33.398;-70.572;2023-08-17T11:41:00;30.55;;;17.48;;
74335;SDS011;62755;-33.398;-70.572;2023-08-17T11:43:31;29.52;;;16.65;;
74335;SDS011;62755;-33.398;-70.572;2023-08-17T11:46:03;40.13;;;18.40;;
74335;SDS011;62755;-33.398;-70.572;2023-08-17T11:48:33;29.85;;;16.30;;
74335;SDS011;62755;-33.398;-70.572;2023-08-17T11:51:03;28.30;;;16.55;;
74335;SDS011;62755;-33.398;-70.572;2023-08-17T11:53:36;36.47;;;17.60;;
74335;SDS011;62755;-33.398;-70.572;2023-08-17T11:56:06;31.45;;;17.55;;
74335;SDS011;62755;-33.398;-70.572;2023-08-17T11:58:39;35.08;;;18.45;;
74335;SDS011;62755;-33.398;-70.572;2023-08-17T12:01:12;29.70;;;17.45;;
74335;SDS011;62755;-33.398;-70.572;2023-08-17T12:03:41;31.77;;;17.90;;
74335;SDS011;62755;-33.398;-70.572;2023-08-17T12:06:11;36.00;;;18.40;;
74335;SDS011;62755;-33.398;-70.572;2023-08-17T12:08:42;38.85;;;19.02;;
74335;SDS011;62755;-33.398;-70.572;2023-08-17T12:11:13;30.98;;;18.65;;
74335;SDS011;62755;-33.398;-70.572;2023-08-17T12:13:48;34.67;;;18.38;;
74335;SDS011;62755;-33.398;-70.572;2023-08-17T12:16:20;38.28;;;19.30;;
74335;SDS011;62755;-33.398;-70.572;2023-08-17T12:18:51;33.30;;;19.48;;
74335;SDS011;62755;-33.398;-70.572;2023-08-17T12:21:21;38.10;;;19.92;;
74335;SDS011;62755;-33.398;-70.572;2023-08-17T12:23:51;37.03;;;19.45;;
74335;SDS011;62755;-33.398;-70.572;2023-08-17T12:26:20;32.40;;;17.90;;
74335;SDS011;62755;-33.398;-70.572;2023-08-17T12:28:50;29.42;;;17.63;;
74335;SDS011;62755;-33.398;-70.572;2023-08-17T12:31:22;34.78;;;18.70;;
74335;SDS011;62755;-33.398;-70.572;2023-08-17T12:33:52;32.22;;;17.42;;
74335;SDS011;62755;-33.398;-70.572;2023-08-17T12:36:22;37.05;;;18.75;;
74335;SDS011;62755;-33.398;-70.572;2023-08-17T12:38:51;29.15;;;17.17;;
74335;SDS011;62755;-33.398;-70.572;2023-08-17T12:41:21;41.13;;;17.98;;
74335;SDS011;62755;-33.398;-70.572;2023-08-17T12:43:51;27.33;;;16.90;;
74335;SDS011;62755;-33.398;-70.572;2023-08-17T12:46:26;33.10;;;15.32;;
74335;SDS011;62755;-33.398;-70.572;2023-08-17T12:48:58;30.55;;;16.00;;
74335;SDS011;62755;-33.398;-70.572;2023-08-17T12:51:28;31.60;;;16.92;;
74335;SDS011;62755;-33.398;-70.572;2023-08-17T12:53:57;38.22;;;16.73;;
74335;SDS011;62755;-33.398;-70.572;2023-08-17T12:56:27;34.28;;;18.00;;
74335;SDS011;62755;-33.398;-70.572;2023-08-17T12:58:57;31.20;;;16.73;;
74335;SDS011;62755;-33.398;-70.572;2023-08-17T13:01:28;31.25;;;16.65;;
74335;SDS011;62755;-33.398;-70.572;2023-08-17T13:03:57;36.95;;;17.45;;
74335;SDS011;62755;-33.398;-70.572;2023-08-17T13:06:27;35.80;;;18.52;;
74335;SDS011;62755;-33.398;-70.572;2023-08-17T13:08:57;42.83;;;18.17;;
74335;SDS011;62755;-33.398;-70.572;2023-08-17T13:11:26;32.58;;;17.15;;
74335;SDS011;62755;-33.398;-70.572;2023-08-17T13:13:56;32.42;;;18.65;;
74335;SDS011;62755;-33.398;-70.572;2023-08-17T13:16:25;39.08;;;18.48;;
74335;SDS011;62755;-33.398;-70.572;2023-08-17T13:18:56;42.78;;;17.50;;
74335;SDS011;62755;-33.398;-70.572;2023-08-17T13:21:26;36.00;;;17.58;;
74335;SDS011;62755;-33.398;-70.572;2023-08-17T13:23:56;38.70;;;18.38;;
74335;SDS011;62755;-33.398;-70.572;2023-08-17T13:26:25;40.63;;;20.15;;
74335;SDS011;62755;-33.398;-70.572;2023-08-17T13:28:55;39.08;;;19.00;;
74335;SDS011;62755;-33.398;-70.572;2023-08-17T13:31:24;35.85;;;19.10;;
74335;SDS011;62755;-33.398;-70.572;2023-08-17T13:33:56;42.58;;;19.58;;
74335;SDS011;62755;-33.398;-70.572;2023-08-17T13:36:25;38.85;;;19.52;;
74335;SDS011;62755;-33.398;-70.572;2023-08-17T13:38:55;35.63;;;18.85;;
74335;SDS011;62755;-33.398;-70.572;2023-08-17T13:41:25;36.78;;;19.58;;
74335;SDS011;62755;-33.398;-70.572;2023-08-17T13:43:54;33.03;;;18.92;;
74335;SDS011;62755;-33.398;-70.572;2023-08-17T13:46:26;42.97;;;21.30;;
74335;SDS011;62755;-33.398;-70.572;2023-08-17T13:48:58;40.42;;;19.10;;
74335;SDS011;62755;-33.398;-70.572;2023-08-17T13:51:27;46.08;;;25.20;;
74335;SDS011;62755;-33.398;-70.572;2023-08-17T13:53:57;44.78;;;27.52;;
74335;SDS011;62755;-33.398;-70.572;2023-08-17T13:56:26;47.17;;;24.60;;
74335;SDS011;62755;-33.398;-70.572;2023-08-17T13:58:56;49.00;;;22.60;;
74335;SDS011;62755;-33.398;-70.572;2023-08-17T14:01:25;42.92;;;22.90;;
74335;SDS011;62755;-33.398;-70.572;2023-08-17T14:03:55;45.35;;;21.23;;
74335;SDS011;62755;-33.398;-70.572;2023-08-17T14:06:26;44.22;;;21.88;;
74335;SDS011;62755;-33.398;-70.572;2023-08-17T14:08:56;42.45;;;22.73;;